Share

Kecskemet, Hungary

IBCSKISK4 Elev 300 ft | 46.71 °N, 19.86 °E | Change Station

Current weather conditions updated 4 minutes ago

Clear
Clear
55.8 °F
Feels Like 55.8 °F
N
3.0
Wind Variable Wind from SSE
Gusts 5.0 mph
Sunrise 5:46 AM
Sunset 7:34 PM
Moon Waning Gibbous

Tomorrow is forecast to be Cooler than today. Showers possible in the afternoon.

Pressure 29.74 in
Visibility -9999.0 miles
Clouds
Dew Point 42 °F
Humidity 59%
Rainfall 0.00 in
Snow Depth Not available.
UV 0.0 out of 16
Pollen Not available.
Air Quality Not available.
Flu Activity Not available.
METAR LHBP 191830Z 03011KT CAVOK 13/05 Q1007 NOSIG

More Conditions Fewer Conditions

Pressure 29.74 in
Visibility -9999.0 miles
Clouds
Dew Point 42 °F
Humidity 59%
Rainfall 0.00 in
Snow Depth Not available.
UV 0.0 out of 16
Pollen Not available.
Air Quality Not available.
Flu Activity Not available.
METAR LHBP 191830Z 03011KT CAVOK 13/05 Q1007 NOSIG

More Conditions Fewer Conditions

10-Day Weather Forecast

Almanac

Astronomy

Apr. 19, 2014 Rise Set
Actual Time 5:46 AM CEST 7:34 PM CEST
Civil Twilight 5:14 AM CEST 8:07 PM CEST
Nautical Twilight 4:34 AM CEST 8:46 PM CEST
Astronomical Twilight 3:51 AM CEST 9:30 PM CEST
Moon No Moon Rise 8:38 AM CEST
Length of Visible Light 14h 52m
Length of Day
13h 48m
Tomorrow will be 3m 9s longer.
Waning Gibbous, 78% of the Moon is Illuminated
Today
Waning Gibbous
Apr 22
Last Quarter
Apr 29
New
May 6
First Quarter
May 14
Full

Today's Extremes

Country Highs Country Lows

Community

  • Piriapolis
    Piriapolis
  • A Glorious Morning
    A Glorious Morning
  • Tender Rays Of Hope
    Tender Rays Of Hope
  • Bleeding Hearts
    Bleeding Hearts
  • Sunset Silhouettes
    Sunset Silhouettes

WunderPhotos

Upload Photos

1,702,840 photos uploaded!

WunderBlogs® & News

Nearby

Snow Depth

Not available.

Coastal Water Temperatures

Place Temperature
No Stations Reporting

Earthquake Activity

City Distance Mag. Time & Date
No recent earthquake activity has been reported nearby.
Minimum magnitude displayed is 2.5.

Nearby Weather Stations

Station Location Temp. Dew Point Humidity Wind Precip. Elev Updated Type
Kiskunfelegyhaza 55.8 °F 42 °F 59% SSE  at  3.0 mph 0.00 in / hr 300 ft 8:42 PM CEST Normal
Csongrad 52.7 °F 48 °F 83% ESE  at  0.0 mph 0.00 in / hr 282 ft 8:38 PM CEST Normal

Show More Stations Show Fewer Stations

What do you think?

We're not finished. Please let us know what you like, what you don't like, and what you are still missing.